sensor_id;sensor_type;location;lat;lon;timestamp;temperature;humidity
40756;DHT22;26461;45.630;9.418;2022-12-07T00:00:09;5.40;99.90
40756;DHT22;26461;45.630;9.418;2022-12-07T00:03:19;5.40;99.90
40756;DHT22;26461;45.630;9.418;2022-12-07T00:06:29;5.50;99.90
40756;DHT22;26461;45.630;9.418;2022-12-07T00:09:39;5.40;99.90
40756;DHT22;26461;45.630;9.418;2022-12-07T00:12:51;5.50;99.90
40756;DHT22;26461;45.630;9.418;2022-12-07T00:16:04;5.50;99.90
40756;DHT22;26461;45.630;9.418;2022-12-07T00:19:14;5.50;99.90
40756;DHT22;26461;45.630;9.418;2022-12-07T00:22:24;5.50;99.90
40756;DHT22;26461;45.630;9.418;2022-12-07T00:25:33;5.40;99.90
40756;DHT22;26461;45.630;9.418;2022-12-07T00:28:39;5.50;99.90
40756;DHT22;26461;45.630;9.418;2022-12-07T00:31:49;5.50;99.90
40756;DHT22;26461;45.630;9.418;2022-12-07T00:34:59;5.50;99.90
40756;DHT22;26461;45.630;9.418;2022-12-07T00:38:09;5.50;99.90
40756;DHT22;26461;45.630;9.418;2022-12-07T00:41:22;5.90;99.90
40756;DHT22;26461;45.630;9.418;2022-12-07T00:44:27;5.50;99.90
40756;DHT22;26461;45.630;9.418;2022-12-07T00:47:38;5.50;99.90
40756;DHT22;26461;45.630;9.418;2022-12-07T00:50:50;5.50;99.90
40756;DHT22;26461;45.630;9.418;2022-12-07T00:54:00;5.50;99.90
40756;DHT22;26461;45.630;9.418;2022-12-07T00:57:10;5.50;99.90
40756;DHT22;26461;45.630;9.418;2022-12-07T01:00:20;5.60;99.90
40756;DHT22;26461;45.630;9.418;2022-12-07T01:03:26;5.50;99.90
40756;DHT22;26461;45.630;9.418;2022-12-07T01:06:36;5.60;99.90
40756;DHT22;26461;45.630;9.418;2022-12-07T01:09:46;5.50;99.90
40756;DHT22;26461;45.630;9.418;2022-12-07T01:12:56;5.60;99.90
40756;DHT22;26461;45.630;9.418;2022-12-07T01:16:06;5.50;99.90
40756;DHT22;26461;45.630;9.418;2022-12-07T01:19:16;5.60;99.90
40756;DHT22;26461;45.630;9.418;2022-12-07T01:22:26;5.60;99.90
40756;DHT22;26461;45.630;9.418;2022-12-07T01:25:36;5.60;99.90
40756;DHT22;26461;45.630;9.418;2022-12-07T01:28:46;5.50;99.90
40756;DHT22;26461;45.630;9.418;2022-12-07T01:31:57;5.60;99.90
40756;DHT22;26461;45.630;9.418;2022-12-07T01:35:07;5.50;99.90
40756;DHT22;26461;45.630;9.418;2022-12-07T01:38:17;5.60;99.90
40756;DHT22;26461;45.630;9.418;2022-12-07T01:41:31;5.80;99.90
40756;DHT22;26461;45.630;9.418;2022-12-07T01:48:37;5.50;99.90
40756;DHT22;26461;45.630;9.418;2022-12-07T01:51:49;5.50;99.90
40756;DHT22;26461;45.630;9.418;2022-12-07T01:55:07;5.40;99.90
40756;DHT22;26461;45.630;9.418;2022-12-07T01:58:14;5.30;99.90
40756;DHT22;26461;45.630;9.418;2022-12-07T02:01:25;5.20;99.90
40756;DHT22;26461;45.630;9.418;2022-12-07T02:04:36;5.20;99.90
40756;DHT22;26461;45.630;9.418;2022-12-07T02:07:47;5.10;99.90
40756;DHT22;26461;45.630;9.418;2022-12-07T02:10:57;4.90;99.90
40756;DHT22;26461;45.630;9.418;2022-12-07T02:14:07;5.00;99.90
40756;DHT22;26461;45.630;9.418;2022-12-07T02:17:37;4.90;99.90
40756;DHT22;26461;45.630;9.418;2022-12-07T02:24:30;4.80;99.90
40756;DHT22;26461;45.630;9.418;2022-12-07T02:27:47;4.70;99.90
40756;DHT22;26461;45.630;9.418;2022-12-07T02:31:12;4.70;99.90
40756;DHT22;26461;45.630;9.418;2022-12-07T02:44:32;4.60;99.90
40756;DHT22;26461;45.630;9.418;2022-12-07T02:47:44;4.60;99.90
40756;DHT22;26461;45.630;9.418;2022-12-07T02:50:56;4.60;99.90
40756;DHT22;26461;45.630;9.418;2022-12-07T02:54:01;4.60;99.90
40756;DHT22;26461;45.630;9.418;2022-12-07T02:58:03;4.60;99.90
40756;DHT22;26461;45.630;9.418;2022-12-07T03:11:45;4.60;99.90
40756;DHT22;26461;45.630;9.418;2022-12-07T03:15:02;4.60;99.90
40756;DHT22;26461;45.630;9.418;2022-12-07T03:18:18;4.60;99.90
40756;DHT22;26461;45.630;9.418;2022-12-07T03:21:33;4.60;99.90
40756;DHT22;26461;45.630;9.418;2022-12-07T03:24:50;4.60;99.90
40756;DHT22;26461;45.630;9.418;2022-12-07T03:28:05;4.60;99.90
40756;DHT22;26461;45.630;9.418;2022-12-07T03:31:29;4.70;99.90
40756;DHT22;26461;45.630;9.418;2022-12-07T03:34:50;4.70;99.90
40756;DHT22;26461;45.630;9.418;2022-12-07T03:38:14;4.70;99.90
40756;DHT22;26461;45.630;9.418;2022-12-07T03:41:30;4.70;99.90
40756;DHT22;26461;45.630;9.418;2022-12-07T03:44:37;4.70;99.90
40756;DHT22;26461;45.630;9.418;2022-12-07T03:48:20;4.60;99.90
40756;DHT22;26461;45.630;9.418;2022-12-07T03:52:00;4.60;99.90
40756;DHT22;26461;45.630;9.418;2022-12-07T03:55:24;4.60;99.90
40756;DHT22;26461;45.630;9.418;2022-12-07T03:58:36;4.60;99.90
40756;DHT22;26461;45.630;9.418;2022-12-07T04:01:56;4.60;99.90
40756;DHT22;26461;45.630;9.418;2022-12-07T04:05:07;4.60;99.90
40756;DHT22;26461;45.630;9.418;2022-12-07T04:08:17;4.50;99.90
40756;DHT22;26461;45.630;9.418;2022-12-07T04:11:27;4.50;99.90
40756;DHT22;26461;45.630;9.418;2022-12-07T04:14:37;4.50;99.90
40756;DHT22;26461;45.630;9.418;2022-12-07T04:17:42;4.50;99.90
40756;DHT22;26461;45.630;9.418;2022-12-07T04:20:52;4.50;99.90
40756;DHT22;26461;45.630;9.418;2022-12-07T04:24:03;4.40;99.90
40756;DHT22;26461;45.630;9.418;2022-12-07T04:27:13;4.40;99.90
40756;DHT22;26461;45.630;9.418;2022-12-07T04:30:18;4.30;99.90
40756;DHT22;26461;45.630;9.418;2022-12-07T04:33:28;4.30;99.90
40756;DHT22;26461;45.630;9.418;2022-12-07T04:36:39;4.30;99.90
40756;DHT22;26461;45.630;9.418;2022-12-07T04:39:44;4.30;99.90
40756;DHT22;26461;45.630;9.418;2022-12-07T04:42:54;4.30;99.90
40756;DHT22;26461;45.630;9.418;2022-12-07T04:45:59;5.00;99.90
40756;DHT22;26461;45.630;9.418;2022-12-07T04:49:10;4.30;99.90
40756;DHT22;26461;45.630;9.418;2022-12-07T04:52:19;4.20;99.90
40756;DHT22;26461;45.630;9.418;2022-12-07T04:55:30;4.30;99.90
40756;DHT22;26461;45.630;9.418;2022-12-07T04:58:41;4.30;99.90
40756;DHT22;26461;45.630;9.418;2022-12-07T05:01:51;4.30;99.90
40756;DHT22;26461;45.630;9.418;2022-12-07T05:05:01;4.30;99.90
40756;DHT22;26461;45.630;9.418;2022-12-07T05:08:11;4.30;99.90
40756;DHT22;26461;45.630;9.418;2022-12-07T05:11:22;4.30;99.90
40756;DHT22;26461;45.630;9.418;2022-12-07T05:14:50;4.30;99.90
40756;DHT22;26461;45.630;9.418;2022-12-07T05:18:00;4.30;99.90
40756;DHT22;26461;45.630;9.418;2022-12-07T05:21:11;4.20;99.90
40756;DHT22;26461;45.630;9.418;2022-12-07T05:24:21;4.20;99.90
40756;DHT22;26461;45.630;9.418;2022-12-07T05:27:31;4.20;99.90
40756;DHT22;26461;45.630;9.418;2022-12-07T05:30:41;4.20;99.90
40756;DHT22;26461;45.630;9.418;2022-12-07T05:33:51;4.10;99.90
40756;DHT22;26461;45.630;9.418;2022-12-07T05:37:01;4.10;99.90
40756;DHT22;26461;45.630;9.418;2022-12-07T05:40:07;4.00;99.90
40756;DHT22;26461;45.630;9.418;2022-12-07T05:43:17;4.00;99.90
40756;DHT22;26461;45.630;9.418;2022-12-07T05:46:27;4.00;99.90
40756;DHT22;26461;45.630;9.418;2022-12-07T05:49:37;4.00;99.90
40756;DHT22;26461;45.630;9.418;2022-12-07T05:52:48;4.10;99.90
40756;DHT22;26461;45.630;9.418;2022-12-07T05:55:58;4.10;99.90
40756;DHT22;26461;45.630;9.418;2022-12-07T05:59:09;4.10;99.90
40756;DHT22;26461;45.630;9.418;2022-12-07T06:02:34;4.10;99.90
40756;DHT22;26461;45.630;9.418;2022-12-07T06:05:44;4.20;99.90
40756;DHT22;26461;45.630;9.418;2022-12-07T06:08:49;4.20;99.90
40756;DHT22;26461;45.630;9.418;2022-12-07T06:12:00;4.10;99.90
40756;DHT22;26461;45.630;9.418;2022-12-07T06:15:24;4.20;99.90
40756;DHT22;26461;45.630;9.418;2022-12-07T06:18:33;4.20;99.90
40756;DHT22;26461;45.630;9.418;2022-12-07T06:21:44;4.20;99.90
40756;DHT22;26461;45.630;9.418;2022-12-07T06:24:55;4.20;99.90
40756;DHT22;26461;45.630;9.418;2022-12-07T06:28:05;4.20;99.90
40756;DHT22;26461;45.630;9.418;2022-12-07T06:31:10;4.20;99.90
40756;DHT22;26461;45.630;9.418;2022-12-07T06:34:21;4.10;99.90
40756;DHT22;26461;45.630;9.418;2022-12-07T06:37:34;4.10;99.90
40756;DHT22;26461;45.630;9.418;2022-12-07T06:40:44;4.20;99.90
40756;DHT22;26461;45.630;9.418;2022-12-07T06:43:54;4.20;99.90
40756;DHT22;26461;45.630;9.418;2022-12-07T06:46:59;4.20;99.90
40756;DHT22;26461;45.630;9.418;2022-12-07T06:50:10;4.20;99.90
40756;DHT22;26461;45.630;9.418;2022-12-07T06:53:20;4.40;99.90
40756;DHT22;26461;45.630;9.418;2022-12-07T06:56:30;4.20;99.90
40756;DHT22;26461;45.630;9.418;2022-12-07T06:59:40;4.20;99.90
40756;DHT22;26461;45.630;9.418;2022-12-07T07:02:46;4.20;99.90
40756;DHT22;26461;45.630;9.418;2022-12-07T07:05:55;4.10;99.90
40756;DHT22;26461;45.630;9.418;2022-12-07T07:09:05;4.20;99.90
40756;DHT22;26461;45.630;9.418;2022-12-07T07:12:16;4.20;99.90
40756;DHT22;26461;45.630;9.418;2022-12-07T07:15:25;4.20;99.90
40756;DHT22;26461;45.630;9.418;2022-12-07T07:18:54;4.10;99.90
40756;DHT22;26461;45.630;9.418;2022-12-07T07:22:05;4.10;99.90
40756;DHT22;26461;45.630;9.418;2022-12-07T07:25:09;4.10;99.90
40756;DHT22;26461;45.630;9.418;2022-12-07T07:28:19;4.20;99.90
40756;DHT22;26461;45.630;9.418;2022-12-07T07:31:30;4.10;99.90
40756;DHT22;26461;45.630;9.418;2022-12-07T07:34:40;4.10;99.90
40756;DHT22;26461;45.630;9.418;2022-12-07T07:37:51;4.20;99.90
40756;DHT22;26461;45.630;9.418;2022-12-07T07:41:01;4.20;99.90
40756;DHT22;26461;45.630;9.418;2022-12-07T07:44:11;4.20;99.90
40756;DHT22;26461;45.630;9.418;2022-12-07T07:47:16;4.10;99.90
40756;DHT22;26461;45.630;9.418;2022-12-07T07:50:26;4.20;99.90
40756;DHT22;26461;45.630;9.418;2022-12-07T07:53:31;4.20;99.90
40756;DHT22;26461;45.630;9.418;2022-12-07T07:56:40;4.20;99.90
40756;DHT22;26461;45.630;9.418;2022-12-07T07:59:50;4.20;99.90
40756;DHT22;26461;45.630;9.418;2022-12-07T08:02:55;4.20;99.90
40756;DHT22;26461;45.630;9.418;2022-12-07T08:06:05;4.20;99.90
40756;DHT22;26461;45.630;9.418;2022-12-07T08:09:10;4.30;99.90
40756;DHT22;26461;45.630;9.418;2022-12-07T08:12:20;4.30;99.90
40756;DHT22;26461;45.630;9.418;2022-12-07T08:15:30;4.30;99.90
40756;DHT22;26461;45.630;9.418;2022-12-07T08:18:41;4.30;99.90
40756;DHT22;26461;45.630;9.418;2022-12-07T08:21:51;4.30;99.90
40756;DHT22;26461;45.630;9.418;2022-12-07T08:25:02;4.30;99.90
40756;DHT22;26461;45.630;9.418;2022-12-07T08:28:12;4.40;99.90
40756;DHT22;26461;45.630;9.418;2022-12-07T08:31:22;4.40;99.90
40756;DHT22;26461;45.630;9.418;2022-12-07T08:34:32;4.50;99.90
40756;DHT22;26461;45.630;9.418;2022-12-07T08:37:42;4.50;99.90
40756;DHT22;26461;45.630;9.418;2022-12-07T08:40:58;4.50;99.90
40756;DHT22;26461;45.630;9.418;2022-12-07T08:44:08;4.60;99.90
40756;DHT22;26461;45.630;9.418;2022-12-07T08:47:18;4.70;99.90
40756;DHT22;26461;45.630;9.418;2022-12-07T08:50:29;4.70;99.90
40756;DHT22;26461;45.630;9.418;2022-12-07T08:53:41;4.80;99.90
40756;DHT22;26461;45.630;9.418;2022-12-07T08:56:54;4.80;99.90
40756;DHT22;26461;45.630;9.418;2022-12-07T09:00:05;4.90;99.90
40756;DHT22;26461;45.630;9.418;2022-12-07T09:03:15;5.00;99.90
40756;DHT22;26461;45.630;9.418;2022-12-07T09:06:27;5.10;99.90
40756;DHT22;26461;45.630;9.418;2022-12-07T09:09:37;5.20;99.90
40756;DHT22;26461;45.630;9.418;2022-12-07T09:12:42;5.20;99.90
40756;DHT22;26461;45.630;9.418;2022-12-07T09:15:53;5.30;99.90
40756;DHT22;26461;45.630;9.418;2022-12-07T09:19:03;5.40;99.90
40756;DHT22;26461;45.630;9.418;2022-12-07T09:22:08;5.40;99.90
40756;DHT22;26461;45.630;9.418;2022-12-07T09:25:18;5.40;99.90
40756;DHT22;26461;45.630;9.418;2022-12-07T09:28:30;5.50;99.90
40756;DHT22;26461;45.630;9.418;2022-12-07T09:31:36;5.50;99.90
40756;DHT22;26461;45.630;9.418;2022-12-07T09:34:46;5.50;99.90
40756;DHT22;26461;45.630;9.418;2022-12-07T09:37:52;5.60;99.90
40756;DHT22;26461;45.630;9.418;2022-12-07T09:41:06;5.70;99.90
40756;DHT22;26461;45.630;9.418;2022-12-07T09:44:14;6.00;99.90
40756;DHT22;26461;45.630;9.418;2022-12-07T09:47:27;5.90;99.90
40756;DHT22;26461;45.630;9.418;2022-12-07T09:50:39;5.90;99.90
40756;DHT22;26461;45.630;9.418;2022-12-07T09:53:53;6.00;99.90
40756;DHT22;26461;45.630;9.418;2022-12-07T09:57:03;6.00;99.90
40756;DHT22;26461;45.630;9.418;2022-12-07T10:00:17;6.00;99.90
40756;DHT22;26461;45.630;9.418;2022-12-07T10:03:23;6.10;99.90
40756;DHT22;26461;45.630;9.418;2022-12-07T10:06:28;6.10;99.90
40756;DHT22;26461;45.630;9.418;2022-12-07T10:09:38;6.20;99.90
40756;DHT22;26461;45.630;9.418;2022-12-07T10:13:04;7.30;99.90
40756;DHT22;26461;45.630;9.418;2022-12-07T10:16:59;6.30;99.90
40756;DHT22;26461;45.630;9.418;2022-12-07T10:20:22;6.30;99.90
40756;DHT22;26461;45.630;9.418;2022-12-07T10:24:12;6.30;99.90
40756;DHT22;26461;45.630;9.418;2022-12-07T10:27:31;6.40;99.90
40756;DHT22;26461;45.630;9.418;2022-12-07T10:31:31;6.50;99.90
40756;DHT22;26461;45.630;9.418;2022-12-07T10:34:24;6.50;99.90
40756;DHT22;26461;45.630;9.418;2022-12-07T10:37:40;6.50;99.90
40756;DHT22;26461;45.630;9.418;2022-12-07T10:40:46;6.60;99.90
40756;DHT22;26461;45.630;9.418;2022-12-07T10:43:53;6.60;99.90
40756;DHT22;26461;45.630;9.418;2022-12-07T10:47:34;6.60;99.90
40756;DHT22;26461;45.630;9.418;2022-12-07T10:50:57;6.70;99.90
40756;DHT22;26461;45.630;9.418;2022-12-07T10:57:39;6.80;99.90
40756;DHT22;26461;45.630;9.418;2022-12-07T11:00:58;6.80;99.90
40756;DHT22;26461;45.630;9.418;2022-12-07T11:04:23;6.90;99.90
40756;DHT22;26461;45.630;9.418;2022-12-07T11:27:42;7.40;99.90
40756;DHT22;26461;45.630;9.418;2022-12-07T11:34:50;7.60;99.90
40756;DHT22;26461;45.630;9.418;2022-12-07T11:38:57;7.70;99.90
40756;DHT22;26461;45.630;9.418;2022-12-07T11:41:42;7.80;99.90
40756;DHT22;26461;45.630;9.418;2022-12-07T11:48:33;8.00;99.90
40756;DHT22;26461;45.630;9.418;2022-12-07T11:51:48;8.10;99.90
40756;DHT22;26461;45.630;9.418;2022-12-07T11:55:02;8.20;99.90
40756;DHT22;26461;45.630;9.418;2022-12-07T12:05:01;8.60;99.90
40756;DHT22;26461;45.630;9.418;2022-12-07T12:08:35;8.40;99.90
40756;DHT22;26461;45.630;9.418;2022-12-07T12:12:13;8.50;99.90
40756;DHT22;26461;45.630;9.418;2022-12-07T12:15:43;8.60;99.90
40756;DHT22;26461;45.630;9.418;2022-12-07T12:18:57;8.60;99.90
40756;DHT22;26461;45.630;9.418;2022-12-07T12:22:20;8.70;99.90
40756;DHT22;26461;45.630;9.418;2022-12-07T12:25:45;8.70;99.90
40756;DHT22;26461;45.630;9.418;2022-12-07T12:29:00;8.80;99.90
40756;DHT22;26461;45.630;9.418;2022-12-07T12:32:29;8.90;99.90
40756;DHT22;26461;45.630;9.418;2022-12-07T12:35:44;9.00;99.90
40756;DHT22;26461;45.630;9.418;2022-12-07T12:42:19;9.20;99.90
40756;DHT22;26461;45.630;9.418;2022-12-07T12:45:29;9.30;99.90
40756;DHT22;26461;45.630;9.418;2022-12-07T12:48:39;9.50;99.90
40756;DHT22;26461;45.630;9.418;2022-12-07T12:51:56;9.60;99.90
40756;DHT22;26461;45.630;9.418;2022-12-07T13:01:39;10.00;99.90
40756;DHT22;26461;45.630;9.418;2022-12-07T13:05:18;10.10;99.90
40756;DHT22;26461;45.630;9.418;2022-12-07T13:08:28;10.20;99.90
40756;DHT22;26461;45.630;9.418;2022-12-07T13:11:44;10.20;99.90
40756;DHT22;26461;45.630;9.418;2022-12-07T13:14:57;10.40;99.90
40756;DHT22;26461;45.630;9.418;2022-12-07T13:24:31;10.50;99.90
40756;DHT22;26461;45.630;9.418;2022-12-07T13:27:51;10.60;99.90
40756;DHT22;26461;45.630;9.418;2022-12-07T13:37:45;10.80;99.90
40756;DHT22;26461;45.630;9.418;2022-12-07T13:41:04;10.90;99.90
40756;DHT22;26461;45.630;9.418;2022-12-07T13:44:16;10.80;99.90
40756;DHT22;26461;45.630;9.418;2022-12-07T13:47:36;10.90;99.90
40756;DHT22;26461;45.630;9.418;2022-12-07T13:50:56;10.90;99.90
40756;DHT22;26461;45.630;9.418;2022-12-07T13:54:11;11.00;99.90
40756;DHT22;26461;45.630;9.418;2022-12-07T13:57:22;11.00;99.90
40756;DHT22;26461;45.630;9.418;2022-12-07T14:00:32;11.10;99.90
40756;DHT22;26461;45.630;9.418;2022-12-07T14:03:43;11.10;99.90
40756;DHT22;26461;45.630;9.418;2022-12-07T14:06:53;11.10;99.90
40756;DHT22;26461;45.630;9.418;2022-12-07T14:10:22;11.20;99.90
40756;DHT22;26461;45.630;9.418;2022-12-07T14:13:37;11.30;99.90
40756;DHT22;26461;45.630;9.418;2022-12-07T14:17:12;11.40;99.90
40756;DHT22;26461;45.630;9.418;2022-12-07T14:20:30;11.40;99.90
40756;DHT22;26461;45.630;9.418;2022-12-07T14:23:40;11.40;99.90
40756;DHT22;26461;45.630;9.418;2022-12-07T14:26:51;11.40;99.90
40756;DHT22;26461;45.630;9.418;2022-12-07T14:30:02;11.40;99.90
40756;DHT22;26461;45.630;9.418;2022-12-07T14:33:12;11.40;99.90
40756;DHT22;26461;45.630;9.418;2022-12-07T14:36:22;11.30;99.90
40756;DHT22;26461;45.630;9.418;2022-12-07T14:39:32;11.20;99.90
40756;DHT22;26461;45.630;9.418;2022-12-07T14:42:42;11.10;99.90
40756;DHT22;26461;45.630;9.418;2022-12-07T14:45:52;11.10;99.90
40756;DHT22;26461;45.630;9.418;2022-12-07T14:49:02;11.00;99.90
40756;DHT22;26461;45.630;9.418;2022-12-07T14:52:21;10.90;99.90
40756;DHT22;26461;45.630;9.418;2022-12-07T14:55:33;10.80;99.90
40756;DHT22;26461;45.630;9.418;2022-12-07T14:58:43;10.80;99.90
40756;DHT22;26461;45.630;9.418;2022-12-07T15:01:53;10.80;99.90
40756;DHT22;26461;45.630;9.418;2022-12-07T15:05:03;10.70;99.90
40756;DHT22;26461;45.630;9.418;2022-12-07T15:08:13;10.60;99.90
40756;DHT22;26461;45.630;9.418;2022-12-07T15:11:23;10.50;99.90
40756;DHT22;26461;45.630;9.418;2022-12-07T15:14:33;10.30;99.90
40756;DHT22;26461;45.630;9.418;2022-12-07T15:17:44;10.00;99.90
40756;DHT22;26461;45.630;9.418;2022-12-07T15:20:54;9.70;99.90
40756;DHT22;26461;45.630;9.418;2022-12-07T15:24:04;9.50;99.90
40756;DHT22;26461;45.630;9.418;2022-12-07T15:27:14;9.40;99.90
40756;DHT22;26461;45.630;9.418;2022-12-07T15:30:24;9.20;99.90
40756;DHT22;26461;45.630;9.418;2022-12-07T15:33:34;9.00;99.90
40756;DHT22;26461;45.630;9.418;2022-12-07T15:36:45;8.90;99.90
40756;DHT22;26461;45.630;9.418;2022-12-07T15:39:54;8.50;99.90
40756;DHT22;26461;45.630;9.418;2022-12-07T15:43:04;8.30;99.90
40756;DHT22;26461;45.630;9.418;2022-12-07T15:46:39;8.10;99.90
40756;DHT22;26461;45.630;9.418;2022-12-07T15:49:49;7.80;99.90
40756;DHT22;26461;45.630;9.418;2022-12-07T15:52:59;7.60;99.90
40756;DHT22;26461;45.630;9.418;2022-12-07T15:56:09;7.40;99.90
40756;DHT22;26461;45.630;9.418;2022-12-07T15:59:19;7.20;99.90
40756;DHT22;26461;45.630;9.418;2022-12-07T16:02:29;7.00;99.90
40756;DHT22;26461;45.630;9.418;2022-12-07T16:05:39;6.90;99.90
40756;DHT22;26461;45.630;9.418;2022-12-07T16:08:49;6.80;99.90
40756;DHT22;26461;45.630;9.418;2022-12-07T16:12:02;6.70;99.90
40756;DHT22;26461;45.630;9.418;2022-12-07T16:15:12;6.60;99.90
40756;DHT22;26461;45.630;9.418;2022-12-07T16:18:22;6.50;99.90
40756;DHT22;26461;45.630;9.418;2022-12-07T16:21:33;6.40;99.90
40756;DHT22;26461;45.630;9.418;2022-12-07T16:24:44;6.30;99.90
40756;DHT22;26461;45.630;9.418;2022-12-07T16:27:53;6.20;99.90
40756;DHT22;26461;45.630;9.418;2022-12-07T16:31:08;6.10;99.90
40756;DHT22;26461;45.630;9.418;2022-12-07T16:34:19;6.00;99.90
40756;DHT22;26461;45.630;9.418;2022-12-07T16:37:29;5.80;99.90
40756;DHT22;26461;45.630;9.418;2022-12-07T16:40:34;5.80;99.90
40756;DHT22;26461;45.630;9.418;2022-12-07T16:43:45;5.60;99.90
40756;DHT22;26461;45.630;9.418;2022-12-07T16:46:55;5.50;99.90
40756;DHT22;26461;45.630;9.418;2022-12-07T16:50:06;5.50;99.90
40756;DHT22;26461;45.630;9.418;2022-12-07T16:53:17;5.40;99.90
40756;DHT22;26461;45.630;9.418;2022-12-07T16:56:27;5.30;99.90
40756;DHT22;26461;45.630;9.418;2022-12-07T16:59:38;5.30;99.90
40756;DHT22;26461;45.630;9.418;2022-12-07T17:02:48;5.30;99.90
40756;DHT22;26461;45.630;9.418;2022-12-07T17:05:58;5.30;99.90
40756;DHT22;26461;45.630;9.418;2022-12-07T17:09:08;5.40;99.90
40756;DHT22;26461;45.630;9.418;2022-12-07T17:12:14;5.30;99.90
40756;DHT22;26461;45.630;9.418;2022-12-07T17:15:20;5.40;99.90
40756;DHT22;26461;45.630;9.418;2022-12-07T17:18:27;6.40;99.90
40756;DHT22;26461;45.630;9.418;2022-12-07T17:21:34;5.30;99.90
40756;DHT22;26461;45.630;9.418;2022-12-07T17:24:39;5.80;99.90
40756;DHT22;26461;45.630;9.418;2022-12-07T17:27:45;5.10;99.90
40756;DHT22;26461;45.630;9.418;2022-12-07T17:30:56;5.80;99.90
40756;DHT22;26461;45.630;9.418;2022-12-07T17:34:11;5.50;99.90
40756;DHT22;26461;45.630;9.418;2022-12-07T17:37:23;4.80;99.90
40756;DHT22;26461;45.630;9.418;2022-12-07T17:40:30;4.60;99.90
40756;DHT22;26461;45.630;9.418;2022-12-07T17:43:35;5.00;99.90
40756;DHT22;26461;45.630;9.418;2022-12-07T17:46:48;4.50;99.90
40756;DHT22;26461;45.630;9.418;2022-12-07T17:49:58;4.60;99.90
40756;DHT22;26461;45.630;9.418;2022-12-07T17:53:03;5.10;99.90
40756;DHT22;26461;45.630;9.418;2022-12-07T17:56:19;4.80;99.90
40756;DHT22;26461;45.630;9.418;2022-12-07T17:59:32;5.40;99.90
40756;DHT22;26461;45.630;9.418;2022-12-07T18:07:06;4.50;99.90
40756;DHT22;26461;45.630;9.418;2022-12-07T18:10:18;4.50;99.90
40756;DHT22;26461;45.630;9.418;2022-12-07T18:13:24;5.30;99.90
40756;DHT22;26461;45.630;9.418;2022-12-07T18:16:41;3.50;99.90
40756;DHT22;26461;45.630;9.418;2022-12-07T18:19:51;4.40;99.90
40756;DHT22;26461;45.630;9.418;2022-12-07T18:23:02;4.40;99.90
40756;DHT22;26461;45.630;9.418;2022-12-07T18:26:08;4.40;99.90
40756;DHT22;26461;45.630;9.418;2022-12-07T18:29:18;4.30;99.90
40756;DHT22;26461;45.630;9.418;2022-12-07T18:32:27;4.30;99.90
40756;DHT22;26461;45.630;9.418;2022-12-07T18:35:36;4.20;99.90
40756;DHT22;26461;45.630;9.418;2022-12-07T18:38:42;4.10;99.90
40756;DHT22;26461;45.630;9.418;2022-12-07T18:41:54;4.10;99.90
40756;DHT22;26461;45.630;9.418;2022-12-07T18:44:59;4.10;99.90
40756;DHT22;26461;45.630;9.418;2022-12-07T18:48:11;4.20;99.90
40756;DHT22;26461;45.630;9.418;2022-12-07T18:51:21;3.90;99.90
40756;DHT22;26461;45.630;9.418;2022-12-07T18:54:27;3.80;99.90
40756;DHT22;26461;45.630;9.418;2022-12-07T18:57:33;3.80;99.90
40756;DHT22;26461;45.630;9.418;2022-12-07T19:00:39;3.60;99.90
40756;DHT22;26461;45.630;9.418;2022-12-07T19:03:47;3.50;99.90
40756;DHT22;26461;45.630;9.418;2022-12-07T19:06:53;3.40;99.90
40756;DHT22;26461;45.630;9.418;2022-12-07T19:10:01;3.40;99.90
40756;DHT22;26461;45.630;9.418;2022-12-07T19:13:07;3.40;99.90
40756;DHT22;26461;45.630;9.418;2022-12-07T19:16:12;3.40;99.90
40756;DHT22;26461;45.630;9.418;2022-12-07T19:19:19;3.30;99.90
40756;DHT22;26461;45.630;9.418;2022-12-07T19:22:29;3.30;99.90
40756;DHT22;26461;45.630;9.418;2022-12-07T19:25:34;3.30;99.90
40756;DHT22;26461;45.630;9.418;2022-12-07T19:28:40;3.30;99.90
40756;DHT22;26461;45.630;9.418;2022-12-07T19:31:50;3.40;99.90
40756;DHT22;26461;45.630;9.418;2022-12-07T19:34:55;3.40;99.90
40756;DHT22;26461;45.630;9.418;2022-12-07T19:38:06;3.30;99.90
40756;DHT22;26461;45.630;9.418;2022-12-07T19:41:12;3.30;99.90
40756;DHT22;26461;45.630;9.418;2022-12-07T19:44:42;3.80;99.90
40756;DHT22;26461;45.630;9.418;2022-12-07T19:47:52;3.90;99.90
40756;DHT22;26461;45.630;9.418;2022-12-07T19:51:02;3.50;99.90
40756;DHT22;26461;45.630;9.418;2022-12-07T19:54:15;3.50;99.90
40756;DHT22;26461;45.630;9.418;2022-12-07T19:57:20;3.60;99.90
40756;DHT22;26461;45.630;9.418;2022-12-07T20:00:25;3.70;99.90
40756;DHT22;26461;45.630;9.418;2022-12-07T20:04:04;3.70;99.90
40756;DHT22;26461;45.630;9.418;2022-12-07T20:07:15;3.80;99.90
40756;DHT22;26461;45.630;9.418;2022-12-07T20:10:20;3.80;99.90
40756;DHT22;26461;45.630;9.418;2022-12-07T20:13:24;3.90;99.90
40756;DHT22;26461;45.630;9.418;2022-12-07T20:16:34;4.00;99.90
40756;DHT22;26461;45.630;9.418;2022-12-07T20:19:39;4.00;99.90
40756;DHT22;26461;45.630;9.418;2022-12-07T20:22:44;4.00;99.90
40756;DHT22;26461;45.630;9.418;2022-12-07T20:25:49;4.10;99.90
40756;DHT22;26461;45.630;9.418;2022-12-07T20:28:54;4.10;99.90
40756;DHT22;26461;45.630;9.418;2022-12-07T20:31:59;4.20;99.90
40756;DHT22;26461;45.630;9.418;2022-12-07T20:35:08;4.20;99.90
40756;DHT22;26461;45.630;9.418;2022-12-07T20:38:15;4.30;99.90
40756;DHT22;26461;45.630;9.418;2022-12-07T20:41:21;4.20;99.90
40756;DHT22;26461;45.630;9.418;2022-12-07T20:44:47;4.20;99.90
40756;DHT22;26461;45.630;9.418;2022-12-07T20:47:53;4.20;99.90
40756;DHT22;26461;45.630;9.418;2022-12-07T20:51:05;4.20;99.90
40756;DHT22;26461;45.630;9.418;2022-12-07T20:54:10;4.20;99.90
40756;DHT22;26461;45.630;9.418;2022-12-07T20:57:44;4.20;99.90
40756;DHT22;26461;45.630;9.418;2022-12-07T21:00:52;4.10;99.90
40756;DHT22;26461;45.630;9.418;2022-12-07T21:03:58;4.10;99.90
40756;DHT22;26461;45.630;9.418;2022-12-07T21:07:03;4.10;99.90
40756;DHT22;26461;45.630;9.418;2022-12-07T21:10:08;4.20;99.90
40756;DHT22;26461;45.630;9.418;2022-12-07T21:13:18;4.20;99.90
40756;DHT22;26461;45.630;9.418;2022-12-07T21:16:28;4.20;99.90
40756;DHT22;26461;45.630;9.418;2022-12-07T21:19:33;4.10;99.90
40756;DHT22;26461;45.630;9.418;2022-12-07T21:22:40;4.30;99.90
40756;DHT22;26461;45.630;9.418;2022-12-07T21:25:45;4.40;99.90
40756;DHT22;26461;45.630;9.418;2022-12-07T21:28:51;4.10;99.90
40756;DHT22;26461;45.630;9.418;2022-12-07T21:32:00;4.10;99.90
40756;DHT22;26461;45.630;9.418;2022-12-07T21:35:05;4.10;99.90
40756;DHT22;26461;45.630;9.418;2022-12-07T21:38:39;4.10;99.90
40756;DHT22;26461;45.630;9.418;2022-12-07T21:41:45;4.20;99.90
40756;DHT22;26461;45.630;9.418;2022-12-07T21:44:56;4.20;99.90
40756;DHT22;26461;45.630;9.418;2022-12-07T21:48:01;4.20;99.90
40756;DHT22;26461;45.630;9.418;2022-12-07T21:51:12;4.20;99.90
40756;DHT22;26461;45.630;9.418;2022-12-07T21:54:18;4.30;99.90
40756;DHT22;26461;45.630;9.418;2022-12-07T21:57:23;4.30;99.90
40756;DHT22;26461;45.630;9.418;2022-12-07T22:00:28;4.30;99.90
40756;DHT22;26461;45.630;9.418;2022-12-07T22:03:34;4.30;99.90